KCEC/CEC METAR and TAF weather

Enter ICAO airport designator
Station Type Date Time Source
KCEC METAR 2018/10/16 21:16 UTC NOAA

KCEC 162116Z AUTO 34011KT 5SM HZ BKN002 13/10 A3013 RMK AO2 T01280100


Station Type Date Time Source
KCEC Decoded METAR 2018/10/16 21:16 UTC NOAA

CRESCENT CITY MC NAMARA, CA, United States (KCEC) 41-47N 124-14W
Oct 16, 2018 - 05:16 PM EDT / 2018.10.16 2116 UTC
Wind: from the NNW (340 degrees) at 13 MPH (11 KT):0
Visibility: 5 mile(s):0
Sky conditions: mostly cloudy
Weather: haze
Temperature: 55.0 F (12.8 C)
Dew Point: 50.0 F (10.0 C)
Relative Humidity: 83%
Pressure (altimeter): 30.13 in. Hg (1020 hPa)
ob: KCEC 162116Z AUTO 34011KT 5SM HZ BKN002 13/10 A3013 RMK AO2 T01280100
cycle: 21

Station Type Date Time Source
KCEC TAF 2018/10/16 19:18 UTC NOAA

TAF
AMD KCEC 161917Z 1619/1718 33010KT 6SM HZ SCT003
FM170200 16003KT 6SM BR SCT004
FM170700 VRB03KT 1SM BR OVC003


Example: see airport list